createdAt,value
2022-11-18T00:02:24.553Z,18.80
2022-11-18T00:04:51.920Z,18.83
2022-11-18T00:07:19.970Z,18.73
2022-11-18T00:09:47.295Z,18.73
2022-11-18T00:12:33.200Z,19.33
2022-11-18T00:15:00.459Z,19.03
2022-11-18T00:17:27.760Z,18.43
2022-11-18T00:19:55.238Z,16.83
2022-11-18T00:22:28.455Z,17.90
2022-11-18T00:24:57.144Z,17.23
2022-11-18T00:27:24.631Z,17.30
2022-11-18T00:29:51.958Z,18.47
2022-11-18T00:32:19.212Z,16.07
2022-11-18T00:34:46.578Z,18.10
2022-11-18T00:37:13.923Z,17.00
2022-11-18T00:39:41.181Z,17.87
2022-11-18T00:42:27.083Z,18.00
2022-11-18T00:44:54.390Z,17.60
2022-11-18T00:47:21.696Z,18.40
2022-11-18T00:49:48.906Z,17.13
2022-11-18T00:52:16.261Z,18.33
2022-11-18T00:54:43.509Z,18.00
2022-11-18T00:57:10.953Z,17.93
2022-11-18T00:59:38.195Z,17.97
2022-11-18T01:02:05.464Z,18.87
2022-11-18T01:04:32.893Z,18.20
2022-11-18T01:07:00.243Z,17.63
2022-11-18T01:09:27.590Z,17.00
2022-11-18T01:12:13.758Z,17.77
2022-11-18T01:14:41.045Z,18.53
2022-11-18T01:17:08.283Z,18.00
2022-11-18T01:19:36.143Z,17.20
2022-11-18T01:22:03.565Z,17.03
2022-11-18T01:24:31.712Z,17.57
2022-11-18T01:26:59.223Z,17.87
2022-11-18T01:29:26.893Z,17.50
2022-11-18T01:32:24.110Z,17.57
2022-11-18T01:34:43.132Z,17.40
2022-11-18T01:37:10.697Z,16.57
2022-11-18T01:39:38.247Z,16.97
2022-11-18T01:42:05.527Z,17.57
2022-11-18T01:45:11.533Z,18.37
2022-11-18T01:47:55.075Z,18.07
2022-11-18T01:50:22.801Z,18.63
2022-11-18T01:52:52.031Z,19.10
2022-11-18T01:55:22.671Z,18.63
2022-11-18T01:57:51.638Z,19.83
2022-11-18T02:00:18.961Z,18.50
2022-11-18T02:02:46.842Z,19.90
2022-11-18T02:05:14.279Z,18.87
2022-11-18T02:07:43.420Z,18.80
2022-11-18T02:10:17.104Z,19.07
2022-11-18T02:12:44.511Z,18.40
2022-11-18T02:15:11.951Z,17.90
2022-11-18T02:17:39.230Z,18.37
2022-11-18T02:20:09.452Z,17.27
2022-11-18T02:22:44.143Z,16.93
2022-11-18T02:25:34.133Z,17.23
2022-11-18T02:28:28.342Z,16.70
2022-11-18T02:30:58.722Z,16.37
2022-11-18T02:33:29.533Z,17.27
2022-11-18T02:36:06.469Z,16.90
2022-11-18T02:38:38.346Z,16.47
2022-11-18T02:41:10.159Z,15.90
2022-11-18T02:43:47.198Z,15.93
2022-11-18T02:46:16.839Z,15.10
2022-11-18T02:48:47.256Z,15.17
2022-11-18T02:51:18.075Z,15.20
2022-11-18T02:53:46.670Z,15.33
2022-11-18T02:56:14.920Z,14.63
2022-11-18T02:58:42.177Z,14.87
2022-11-18T03:01:16.103Z,15.10
2022-11-18T03:03:43.441Z,15.00
2022-11-18T03:06:26.111Z,15.67
2022-11-18T03:08:55.767Z,14.77
2022-11-18T03:11:24.679Z,14.70
2022-11-18T03:13:54.902Z,15.70
2022-11-18T03:16:25.963Z,16.20
2022-11-18T03:19:06.470Z,15.73
2022-11-18T03:21:56.679Z,15.17
2022-11-18T03:24:32.670Z,15.67
2022-11-18T03:27:05.881Z,15.93
2022-11-18T03:29:35.115Z,15.80
2022-11-18T03:32:12.959Z,16.07
2022-11-18T03:34:44.030Z,17.57
2022-11-18T03:37:13.301Z,18.03
2022-11-18T03:39:43.965Z,17.63
2022-11-18T03:42:16.826Z,18.53
2022-11-18T03:44:52.115Z,18.30
2022-11-18T03:47:23.294Z,19.57
2022-11-18T03:49:53.603Z,19.73
2022-11-18T03:52:23.531Z,19.70
2022-11-18T03:54:52.011Z,19.13
2022-11-18T03:57:21.896Z,18.80
2022-11-18T03:59:51.896Z,18.93
2022-11-18T04:02:23.943Z,19.33
2022-11-18T04:04:52.702Z,18.73
2022-11-18T04:07:40.847Z,18.87
2022-11-18T04:10:26.600Z,19.43
2022-11-18T04:13:29.341Z,16.83
2022-11-18T04:15:56.737Z,15.20
2022-11-18T04:18:24.362Z,16.33
2022-11-18T04:20:51.664Z,16.07
2022-11-18T04:23:18.908Z,15.87
2022-11-18T04:25:46.557Z,15.80
2022-11-18T04:28:13.818Z,16.20
2022-11-18T04:30:41.069Z,16.80
2022-11-18T04:33:08.422Z,16.40
2022-11-18T04:35:35.741Z,15.67
2022-11-18T04:38:04.826Z,16.50
2022-11-18T04:40:32.681Z,16.70
2022-11-18T04:42:59.988Z,15.87
2022-11-18T04:45:27.261Z,16.17
2022-11-18T04:47:58.855Z,16.10
2022-11-18T04:50:29.326Z,15.10
2022-11-18T04:52:56.846Z,15.13
2022-11-18T04:55:24.094Z,15.50
2022-11-18T04:57:51.347Z,15.57
2022-11-18T05:00:18.681Z,15.63
2022-11-18T05:02:45.942Z,14.63
2022-11-18T05:05:13.170Z,15.03
2022-11-18T05:07:40.499Z,15.97
2022-11-18T05:10:08.262Z,15.87
2022-11-18T05:12:50.942Z,15.20
2022-11-18T05:15:19.009Z,16.37
2022-11-18T05:17:46.494Z,14.87
2022-11-18T05:20:14.048Z,15.00
2022-11-18T05:22:41.346Z,14.70
2022-11-18T05:25:08.846Z,15.00
2022-11-18T05:27:36.170Z,14.60
2022-11-18T05:30:03.478Z,14.83
2022-11-18T05:32:30.742Z,14.07
2022-11-18T05:34:58.046Z,13.80
2022-11-18T05:37:25.284Z,14.10
2022-11-18T05:39:52.558Z,12.63
2022-11-18T05:42:38.708Z,11.43
2022-11-18T05:45:06.858Z,12.17
2022-11-18T05:47:54.112Z,13.00
2022-11-18T05:50:21.700Z,12.13
2022-11-18T05:52:48.980Z,11.03
2022-11-18T05:55:17.030Z,11.03
2022-11-18T05:57:44.389Z,10.17
2022-11-18T06:00:12.061Z,10.23
2022-11-18T06:02:40.812Z,10.10
2022-11-18T06:05:08.387Z,10.37
2022-11-18T06:07:39.268Z,10.10
2022-11-18T06:10:06.930Z,9.27
2022-11-18T06:12:36.619Z,8.50
2022-11-18T06:15:05.926Z,8.23
2022-11-18T06:17:36.378Z,8.67
2022-11-18T06:20:04.476Z,9.20
2022-11-18T06:22:33.018Z,8.33
2022-11-18T06:25:01.099Z,8.47
2022-11-18T06:27:29.040Z,9.47
2022-11-18T06:29:56.267Z,8.87
2022-11-18T06:32:23.500Z,8.63
2022-11-18T06:34:50.971Z,9.23
2022-11-18T06:37:20.738Z,9.00
2022-11-18T06:39:48.190Z,9.90
2022-11-18T06:42:35.729Z,9.27
2022-11-18T06:45:03.565Z,9.63
2022-11-18T06:47:31.042Z,9.60
2022-11-18T06:49:58.261Z,9.20
2022-11-18T06:52:25.502Z,9.10
2022-11-18T06:54:52.850Z,9.43
2022-11-18T06:57:20.249Z,10.37
2022-11-18T06:59:47.993Z,8.90
2022-11-18T07:02:15.302Z,9.07
2022-11-18T07:04:43.382Z,9.23
2022-11-18T07:07:10.701Z,8.90
2022-11-18T07:09:38.523Z,8.63
2022-11-18T07:12:06.176Z,9.90
2022-11-18T07:14:33.498Z,9.50
2022-11-18T07:17:02.997Z,9.07
2022-11-18T07:19:35.636Z,9.30
2022-11-18T07:22:03.312Z,9.30
2022-11-18T07:24:31.304Z,8.77
2022-11-18T07:26:58.618Z,9.10
2022-11-18T07:29:25.881Z,9.43
2022-11-18T07:31:53.102Z,8.97
2022-11-18T07:34:20.384Z,8.83
2022-11-18T07:36:47.806Z,8.60
2022-11-18T07:39:15.131Z,8.97
2022-11-18T07:41:42.480Z,9.30
2022-11-18T07:44:12.475Z,8.60
2022-11-18T07:46:39.990Z,8.77
2022-11-18T07:49:12.253Z,8.60
2022-11-18T07:51:40.217Z,8.40
2022-11-18T07:54:16.150Z,8.10
2022-11-18T07:56:45.064Z,8.27
2022-11-18T07:59:12.340Z,7.67
2022-11-18T08:01:40.835Z,9.17
2022-11-18T08:04:11.277Z,8.47
2022-11-18T08:06:39.436Z,9.37
2022-11-18T08:09:07.616Z,8.90
2022-11-18T08:11:36.523Z,8.90
2022-11-18T08:14:03.901Z,8.37
2022-11-18T08:16:31.173Z,8.87
2022-11-18T08:18:59.943Z,9.00
2022-11-18T08:21:27.717Z,8.70
2022-11-18T08:23:56.504Z,8.13
2022-11-18T08:26:24.948Z,8.00
2022-11-18T08:28:52.479Z,7.60
2022-11-18T08:31:24.832Z,7.37
2022-11-18T08:34:00.617Z,7.90
2022-11-18T08:36:29.567Z,7.30
2022-11-18T08:38:57.749Z,7.07
2022-11-18T08:41:34.000Z,7.43
2022-11-18T08:44:01.867Z,7.70
2022-11-18T08:46:29.522Z,7.40
2022-11-18T08:48:57.294Z,7.33
2022-11-18T08:51:25.141Z,7.40
2022-11-18T08:53:52.429Z,7.37
2022-11-18T08:56:20.868Z,7.40
2022-11-18T08:58:48.471Z,5.90
2022-11-18T09:01:16.905Z,5.90
2022-11-18T09:03:44.498Z,6.00
2022-11-18T09:06:11.742Z,6.17
2022-11-18T09:08:39.200Z,6.23
2022-11-18T09:11:10.279Z,6.80
2022-11-18T09:14:04.361Z,6.53
2022-11-18T09:16:28.136Z,6.40
2022-11-18T09:18:57.045Z,6.73
2022-11-18T09:21:24.835Z,6.67
2022-11-18T09:23:52.376Z,6.53
2022-11-18T09:26:29.517Z,6.80
2022-11-18T09:28:56.826Z,6.90
2022-11-18T09:31:24.125Z,6.00
2022-11-18T09:33:51.440Z,6.37
2022-11-18T09:36:20.224Z,6.47
2022-11-18T09:38:51.878Z,6.80
2022-11-18T09:41:41.420Z,6.37
2022-11-18T09:44:08.700Z,6.10
2022-11-18T09:46:38.732Z,6.60
2022-11-18T09:49:14.812Z,5.73
2022-11-18T09:51:44.375Z,6.00
2022-11-18T09:54:13.298Z,6.30
2022-11-18T09:56:41.734Z,6.60
2022-11-18T09:59:12.483Z,6.47
2022-11-18T10:01:39.831Z,6.10
2022-11-18T10:04:07.134Z,6.73
2022-11-18T10:06:34.675Z,6.40
2022-11-18T10:09:27.171Z,7.00
2022-11-18T10:12:13.362Z,6.30
2022-11-18T10:14:40.854Z,6.50
2022-11-18T10:17:16.598Z,6.23
2022-11-18T10:19:48.429Z,6.37
2022-11-18T10:22:24.674Z,6.33
2022-11-18T10:24:56.891Z,7.07
2022-11-18T10:27:27.083Z,11.93
2022-11-18T10:29:58.682Z,7.13
2022-11-18T10:32:26.003Z,6.43
2022-11-18T10:34:58.069Z,6.33
2022-11-18T10:38:06.371Z,6.73
2022-11-18T10:40:26.706Z,6.37
2022-11-18T10:42:54.075Z,6.20
2022-11-18T10:45:28.396Z,6.40
2022-11-18T10:48:15.646Z,6.47
2022-11-18T10:50:44.680Z,6.27
2022-11-18T10:53:31.444Z,5.40
2022-11-18T10:56:02.583Z,5.50
2022-11-18T10:58:35.543Z,5.53
2022-11-18T11:01:08.504Z,6.47
2022-11-18T11:03:39.648Z,6.10
2022-11-18T11:06:22.358Z,6.10
2022-11-18T11:08:54.656Z,6.47
2022-11-18T11:11:45.194Z,6.93
2022-11-18T11:14:33.755Z,6.13
2022-11-18T11:17:15.660Z,5.80
2022-11-18T11:19:45.441Z,6.00
2022-11-18T11:22:13.424Z,6.30
2022-11-18T11:24:40.891Z,5.60
2022-11-18T11:30:04.658Z,6.33
2022-11-18T11:32:48.492Z,6.40
2022-11-18T11:35:30.966Z,6.40
2022-11-18T11:38:21.284Z,6.80
2022-11-18T11:40:51.457Z,6.37
2022-11-18T11:43:27.597Z,6.07
2022-11-18T11:45:58.140Z,5.77
2022-11-18T11:48:49.046Z,5.80
2022-11-18T11:51:26.936Z,5.83
2022-11-18T11:54:00.452Z,5.27
2022-11-18T11:56:45.068Z,5.70
2022-11-18T11:59:18.746Z,5.53
2022-11-18T12:02:00.510Z,5.50
2022-11-18T12:04:37.080Z,5.60
2022-11-18T12:07:07.089Z,5.67
2022-11-18T12:10:07.195Z,5.90
2022-11-18T12:12:51.090Z,5.67
2022-11-18T12:15:25.086Z,5.60
2022-11-18T12:18:01.657Z,5.90
2022-11-18T12:20:48.303Z,5.60
2022-11-18T12:23:25.912Z,5.67
2022-11-18T12:25:58.568Z,6.00
2022-11-18T12:28:35.578Z,5.30
2022-11-18T12:31:18.644Z,5.80
2022-11-18T12:33:48.565Z,5.37
2022-11-18T12:36:35.215Z,5.70
2022-11-18T12:39:21.720Z,5.53
2022-11-18T12:42:12.006Z,5.93
2022-11-18T12:44:39.897Z,6.23
2022-11-18T12:47:09.282Z,6.70
2022-11-18T12:49:36.516Z,6.13
2022-11-18T12:52:05.522Z,6.20
2022-11-18T12:54:35.359Z,6.20
2022-11-18T12:57:04.761Z,6.03
2022-11-18T12:59:33.723Z,6.33
2022-11-18T13:02:13.270Z,6.70
2022-11-18T13:04:45.817Z,6.13
2022-11-18T13:07:34.901Z,6.90
2022-11-18T13:10:03.188Z,6.03
2022-11-18T13:12:31.043Z,6.33
2022-11-18T13:15:18.041Z,6.20
2022-11-18T13:17:58.831Z,5.80
2022-11-18T13:20:36.799Z,6.20
2022-11-18T13:23:24.622Z,6.47
2022-11-18T13:25:51.953Z,6.57
2022-11-18T13:28:31.386Z,6.43
2022-11-18T13:31:06.045Z,6.43
2022-11-18T13:33:37.442Z,6.27
2022-11-18T13:36:04.837Z,6.20
2022-11-18T13:38:32.319Z,6.80
2022-11-18T13:41:08.098Z,6.53
2022-11-18T13:43:36.107Z,6.40
2022-11-18T13:46:14.934Z,6.57
2022-11-18T13:48:47.236Z,6.90
2022-11-18T13:51:14.771Z,7.23
2022-11-18T13:53:43.519Z,7.23
2022-11-18T13:56:20.378Z,7.60
2022-11-18T14:01:40.185Z,8.17
2022-11-18T14:04:19.685Z,7.57
2022-11-18T14:06:49.192Z,7.90
2022-11-18T14:09:17.881Z,7.90
2022-11-18T14:11:47.101Z,7.67
2022-11-18T14:14:28.403Z,7.47
2022-11-18T14:17:03.925Z,7.63
2022-11-18T14:19:32.227Z,8.37
2022-11-18T14:22:11.549Z,8.60
2022-11-18T14:24:40.308Z,8.30
2022-11-18T14:27:26.418Z,8.90
2022-11-18T14:29:53.649Z,8.73
2022-11-18T14:32:21.615Z,8.93
2022-11-18T14:34:58.099Z,9.53
2022-11-18T14:37:25.347Z,9.50
2022-11-18T14:39:58.827Z,10.80
2022-11-18T14:42:26.175Z,10.57
2022-11-18T14:44:53.453Z,10.57
2022-11-18T14:47:27.240Z,11.10
2022-11-18T14:49:55.569Z,12.10
2022-11-18T14:52:22.920Z,12.20
2022-11-18T14:54:50.228Z,12.57
2022-11-18T14:57:19.504Z,13.40
2022-11-18T14:59:46.882Z,12.67
2022-11-18T15:02:15.628Z,14.80
2022-11-18T15:04:46.847Z,13.43
2022-11-18T15:07:22.813Z,12.67
2022-11-18T15:09:50.955Z,12.53
2022-11-18T15:12:18.323Z,12.00
2022-11-18T15:14:45.615Z,10.97
2022-11-18T15:17:20.462Z,11.77
2022-11-18T15:19:47.985Z,12.10
2022-11-18T15:22:15.243Z,12.00
2022-11-18T15:24:42.480Z,12.20
2022-11-18T15:27:10.696Z,10.40
2022-11-18T15:29:38.023Z,9.73
2022-11-18T15:32:05.345Z,9.90
2022-11-18T15:34:32.784Z,9.30
2022-11-18T15:37:00.035Z,9.63
2022-11-18T15:39:27.278Z,10.63
2022-11-18T15:41:54.546Z,10.07
2022-11-18T15:44:22.095Z,9.73
2022-11-18T15:46:50.385Z,10.10
2022-11-18T15:49:17.979Z,10.43
2022-11-18T15:51:45.436Z,11.00
2022-11-18T15:54:12.695Z,10.20
2022-11-18T15:56:41.584Z,10.30
2022-11-18T15:59:12.803Z,11.40
2022-11-18T16:01:41.247Z,11.00
2022-11-18T16:04:13.157Z,11.60
2022-11-18T16:06:43.478Z,11.47
2022-11-18T16:10:01.998Z,12.00
2022-11-18T16:12:47.305Z,11.67
2022-11-18T16:15:34.225Z,11.83
2022-11-18T16:18:02.070Z,12.20
2022-11-18T16:20:29.363Z,12.47
2022-11-18T16:22:57.399Z,13.13
2022-11-18T16:25:25.309Z,13.07
2022-11-18T16:27:52.697Z,13.37
2022-11-18T16:30:38.580Z,13.67
2022-11-18T16:33:05.855Z,13.13
2022-11-18T16:35:33.110Z,12.63
2022-11-18T16:38:00.347Z,13.33
2022-11-18T16:40:28.554Z,13.43
2022-11-18T16:42:56.020Z,13.10
2022-11-18T16:45:23.313Z,13.20
2022-11-18T16:47:51.435Z,12.77
2022-11-18T16:50:20.743Z,12.77
2022-11-18T16:52:48.013Z,13.03
2022-11-18T16:55:15.304Z,13.40
2022-11-18T16:57:42.541Z,13.30
2022-11-18T17:00:10.243Z,12.83
2022-11-18T17:02:37.546Z,12.53
2022-11-18T17:05:04.958Z,12.17
2022-11-18T17:07:38.300Z,12.00
2022-11-18T17:10:06.380Z,12.53
2022-11-18T17:12:33.603Z,12.80
2022-11-18T17:15:00.903Z,11.93
2022-11-18T17:17:28.151Z,11.50
2022-11-18T17:19:55.823Z,11.67
2022-11-18T17:22:24.505Z,11.80
2022-11-18T17:24:55.041Z,12.33
2022-11-18T17:27:23.496Z,12.53
2022-11-18T17:29:50.843Z,12.17
2022-11-18T17:32:19.479Z,12.40
2022-11-18T17:34:47.429Z,12.30
2022-11-18T17:37:14.727Z,13.70
2022-11-18T17:39:42.218Z,11.30
2022-11-18T17:42:15.697Z,12.27
2022-11-18T17:44:45.399Z,11.43
2022-11-18T17:47:12.652Z,11.50
2022-11-18T17:49:40.155Z,11.20
2022-11-18T17:52:07.778Z,10.85
2022-11-18T17:54:36.899Z,12.80
2022-11-18T17:57:04.277Z,10.93
2022-11-18T17:59:32.717Z,11.53
2022-11-18T18:02:01.287Z,11.50
2022-11-18T18:04:28.735Z,11.60
2022-11-18T18:06:56.164Z,11.37
2022-11-18T18:09:30.094Z,11.37
2022-11-18T18:11:58.499Z,12.03
2022-11-18T18:14:25.771Z,12.53
2022-11-18T18:16:53.047Z,12.33
2022-11-18T18:19:21.743Z,12.23
2022-11-18T18:21:49.337Z,12.07
2022-11-18T18:24:20.962Z,11.53
2022-11-18T18:26:49.211Z,11.57
2022-11-18T18:29:16.603Z,11.83
2022-11-18T18:31:44.727Z,11.33
2022-11-18T18:34:12.942Z,11.10
2022-11-18T18:36:40.248Z,11.20
2022-11-18T18:39:07.784Z,11.70
2022-11-18T18:41:35.109Z,11.10
2022-11-18T18:44:02.452Z,11.00
2022-11-18T18:46:32.305Z,11.70
2022-11-18T18:49:01.655Z,11.47
2022-11-18T18:51:30.294Z,11.60
2022-11-18T18:53:58.703Z,11.57
2022-11-18T18:56:26.292Z,11.50
2022-11-18T18:58:53.687Z,11.13
2022-11-18T19:01:22.057Z,11.70
2022-11-18T19:03:54.556Z,11.87
2022-11-18T19:06:52.068Z,12.77
2022-11-18T19:09:14.303Z,13.50
2022-11-18T19:12:00.800Z,11.73
2022-11-18T19:14:28.408Z,11.90
2022-11-18T19:16:56.076Z,11.00
2022-11-18T19:19:43.777Z,11.67
2022-11-18T19:22:11.711Z,11.60
2022-11-18T19:27:26.730Z,12.77
2022-11-18T19:29:53.963Z,12.83
2022-11-18T19:32:21.278Z,12.77
2022-11-18T19:34:48.637Z,14.67
2022-11-18T19:37:15.880Z,14.10
2022-11-18T19:39:43.127Z,13.53
2022-11-18T19:42:11.146Z,11.00
2022-11-18T19:44:38.962Z,10.90
2022-11-18T19:47:06.447Z,11.57
2022-11-18T19:49:33.748Z,11.37
2022-11-18T19:52:00.991Z,11.80
2022-11-18T19:54:28.337Z,12.73
2022-11-18T19:56:55.719Z,13.43
2022-11-18T19:59:23.015Z,13.80
2022-11-18T20:01:50.384Z,13.80
2022-11-18T20:04:17.669Z,13.37
2022-11-18T20:06:45.974Z,13.60
2022-11-18T20:09:13.419Z,13.80
2022-11-18T20:11:40.674Z,12.43
2022-11-18T20:14:08.539Z,12.83
2022-11-18T20:16:36.950Z,12.43
2022-11-18T20:19:09.438Z,12.30
2022-11-18T20:21:47.947Z,12.17
2022-11-18T20:24:17.043Z,12.00
2022-11-18T20:26:44.404Z,12.20
2022-11-18T20:29:11.773Z,13.27
2022-11-18T20:31:39.266Z,12.70
2022-11-18T20:34:06.581Z,12.03
2022-11-18T20:36:35.566Z,11.73
2022-11-18T20:39:05.687Z,12.50
2022-11-18T20:41:33.537Z,11.50
2022-11-18T20:44:01.455Z,11.83
2022-11-18T20:46:30.163Z,12.17
2022-11-18T20:48:57.434Z,11.47
2022-11-18T20:51:25.512Z,12.13
2022-11-18T20:53:53.775Z,11.40
2022-11-18T20:56:22.573Z,11.63
2022-11-18T20:58:51.368Z,11.80
2022-11-18T21:01:19.766Z,11.57
2022-11-18T21:03:54.561Z,11.17
2022-11-18T21:06:23.342Z,12.07
2022-11-18T21:08:57.650Z,11.70
2022-11-18T21:11:25.600Z,11.40
2022-11-18T21:14:11.756Z,12.10
2022-11-18T21:16:40.324Z,11.80
2022-11-18T21:19:07.768Z,11.47
2022-11-18T21:21:44.562Z,11.90
2022-11-18T21:24:23.054Z,12.10
2022-11-18T21:26:51.626Z,12.60
2022-11-18T21:29:19.298Z,12.53
2022-11-18T21:31:47.586Z,11.83
2022-11-18T21:34:15.624Z,12.37
2022-11-18T21:36:46.929Z,12.47
2022-11-18T21:39:17.958Z,12.40
2022-11-18T21:41:48.352Z,12.43
2022-11-18T21:44:18.283Z,12.60
2022-11-18T21:46:45.738Z,12.80
2022-11-18T21:49:13.084Z,12.40
2022-11-18T21:51:40.311Z,12.23
2022-11-18T21:54:08.766Z,11.80
